sensor_id;sensor_type;location;lat;lon;timestamp;P1;durP1;ratioP1;P2;durP2;ratioP2
38332;SDS011;25748;46.670;14.272;2022-08-18T00:00:05;5.88;;;3.10;;
38332;SDS011;25748;46.670;14.272;2022-08-18T00:02:36;9.18;;;3.97;;
38332;SDS011;25748;46.670;14.272;2022-08-18T00:05:03;6.75;;;4.18;;
38332;SDS011;25748;46.670;14.272;2022-08-18T00:07:30;5.55;;;3.20;;
38332;SDS011;25748;46.670;14.272;2022-08-18T00:09:56;8.05;;;3.47;;
38332;SDS011;25748;46.670;14.272;2022-08-18T00:12:24;5.00;;;3.60;;
38332;SDS011;25748;46.670;14.272;2022-08-18T00:14:55;7.65;;;3.67;;
38332;SDS011;25748;46.670;14.272;2022-08-18T00:17:26;6.47;;;3.78;;
38332;SDS011;25748;46.670;14.272;2022-08-18T00:19:51;5.85;;;3.88;;
38332;SDS011;25748;46.670;14.272;2022-08-18T00:22:18;6.10;;;3.90;;
38332;SDS011;25748;46.670;14.272;2022-08-18T00:24:47;8.25;;;3.72;;
38332;SDS011;25748;46.670;14.272;2022-08-18T00:27:25;6.25;;;3.63;;
38332;SDS011;25748;46.670;14.272;2022-08-18T00:29:54;6.97;;;3.40;;
38332;SDS011;25748;46.670;14.272;2022-08-18T00:32:25;5.43;;;3.60;;
38332;SDS011;25748;46.670;14.272;2022-08-18T00:34:53;8.27;;;3.25;;
38332;SDS011;25748;46.670;14.272;2022-08-18T00:37:19;4.82;;;3.33;;
38332;SDS011;25748;46.670;14.272;2022-08-18T00:39:46;8.75;;;4.05;;
38332;SDS011;25748;46.670;14.272;2022-08-18T00:42:15;5.75;;;3.58;;
38332;SDS011;25748;46.670;14.272;2022-08-18T00:44:44;6.63;;;3.72;;
38332;SDS011;25748;46.670;14.272;2022-08-18T00:47:10;5.00;;;3.35;;
38332;SDS011;25748;46.670;14.272;2022-08-18T00:49:36;4.57;;;3.63;;
38332;SDS011;25748;46.670;14.272;2022-08-18T00:52:04;5.18;;;4.13;;
38332;SDS011;25748;46.670;14.272;2022-08-18T00:54:30;10.27;;;4.35;;
38332;SDS011;25748;46.670;14.272;2022-08-18T00:56:59;7.47;;;3.90;;
38332;SDS011;25748;46.670;14.272;2022-08-18T01:02:03;7.35;;;4.47;;
38332;SDS011;25748;46.670;14.272;2022-08-18T01:04:39;6.28;;;4.10;;
38332;SDS011;25748;46.670;14.272;2022-08-18T01:07:10;12.20;;;4.57;;
38332;SDS011;25748;46.670;14.272;2022-08-18T01:09:48;8.13;;;4.38;;
38332;SDS011;25748;46.670;14.272;2022-08-18T01:12:16;8.65;;;4.57;;
38332;SDS011;25748;46.670;14.272;2022-08-18T01:14:42;8.40;;;4.15;;
38332;SDS011;25748;46.670;14.272;2022-08-18T01:17:10;7.15;;;4.38;;
38332;SDS011;25748;46.670;14.272;2022-08-18T01:19:54;9.25;;;3.75;;
38332;SDS011;25748;46.670;14.272;2022-08-18T01:25:12;12.68;;;4.38;;
38332;SDS011;25748;46.670;14.272;2022-08-18T01:27:59;9.40;;;4.53;;
38332;SDS011;25748;46.670;14.272;2022-08-18T01:30:27;5.57;;;3.72;;
38332;SDS011;25748;46.670;14.272;2022-08-18T01:32:55;17.52;;;3.97;;
38332;SDS011;25748;46.670;14.272;2022-08-18T01:35:22;8.57;;;4.60;;
38332;SDS011;25748;46.670;14.272;2022-08-18T01:37:50;11.18;;;4.80;;
38332;SDS011;25748;46.670;14.272;2022-08-18T01:40:17;9.25;;;5.03;;
38332;SDS011;25748;46.670;14.272;2022-08-18T01:42:45;10.00;;;5.00;;
38332;SDS011;25748;46.670;14.272;2022-08-18T01:45:12;9.20;;;4.13;;
38332;SDS011;25748;46.670;14.272;2022-08-18T01:47:39;11.15;;;4.57;;
38332;SDS011;25748;46.670;14.272;2022-08-18T01:50:05;7.43;;;4.25;;
38332;SDS011;25748;46.670;14.272;2022-08-18T01:52:32;9.90;;;4.65;;
38332;SDS011;25748;46.670;14.272;2022-08-18T01:54:59;10.63;;;4.93;;
38332;SDS011;25748;46.670;14.272;2022-08-18T01:57:25;8.77;;;5.20;;
38332;SDS011;25748;46.670;14.272;2022-08-18T01:59:52;10.50;;;5.18;;
38332;SDS011;25748;46.670;14.272;2022-08-18T02:02:22;9.90;;;4.45;;
38332;SDS011;25748;46.670;14.272;2022-08-18T02:04:52;10.60;;;4.78;;
38332;SDS011;25748;46.670;14.272;2022-08-18T02:07:21;12.25;;;4.82;;
38332;SDS011;25748;46.670;14.272;2022-08-18T02:09:47;9.00;;;4.47;;
38332;SDS011;25748;46.670;14.272;2022-08-18T02:12:13;12.73;;;5.32;;
38332;SDS011;25748;46.670;14.272;2022-08-18T02:14:39;13.90;;;6.28;;
38332;SDS011;25748;46.670;14.272;2022-08-18T02:17:06;12.05;;;6.47;;
38332;SDS011;25748;46.670;14.272;2022-08-18T02:19:37;17.73;;;7.25;;
38332;SDS011;25748;46.670;14.272;2022-08-18T02:22:05;17.33;;;6.88;;
38332;SDS011;25748;46.670;14.272;2022-08-18T02:24:33;18.42;;;6.95;;
38332;SDS011;25748;46.670;14.272;2022-08-18T02:26:59;7.38;;;4.85;;
38332;SDS011;25748;46.670;14.272;2022-08-18T02:29:24;7.85;;;4.22;;
38332;SDS011;25748;46.670;14.272;2022-08-18T02:31:50;8.57;;;4.40;;
38332;SDS011;25748;46.670;14.272;2022-08-18T02:34:16;9.88;;;5.32;;
38332;SDS011;25748;46.670;14.272;2022-08-18T02:36:42;8.25;;;4.50;;
38332;SDS011;25748;46.670;14.272;2022-08-18T02:39:08;7.70;;;4.55;;
38332;SDS011;25748;46.670;14.272;2022-08-18T02:41:34;6.80;;;3.85;;
38332;SDS011;25748;46.670;14.272;2022-08-18T02:44:01;9.35;;;4.80;;
38332;SDS011;25748;46.670;14.272;2022-08-18T02:46:28;8.68;;;4.95;;
38332;SDS011;25748;46.670;14.272;2022-08-18T02:48:54;9.02;;;5.28;;
38332;SDS011;25748;46.670;14.272;2022-08-18T02:51:20;11.18;;;4.68;;
38332;SDS011;25748;46.670;14.272;2022-08-18T02:53:46;11.40;;;4.85;;
38332;SDS011;25748;46.670;14.272;2022-08-18T02:56:14;8.30;;;4.20;;
38332;SDS011;25748;46.670;14.272;2022-08-18T02:59:25;5.65;;;4.20;;
38332;SDS011;25748;46.670;14.272;2022-08-18T03:01:47;7.57;;;4.60;;
38332;SDS011;25748;46.670;14.272;2022-08-18T03:04:16;9.65;;;4.95;;
38332;SDS011;25748;46.670;14.272;2022-08-18T03:06:45;6.97;;;4.00;;
38332;SDS011;25748;46.670;14.272;2022-08-18T03:09:12;14.57;;;4.20;;
38332;SDS011;25748;46.670;14.272;2022-08-18T03:11:40;8.57;;;4.65;;
38332;SDS011;25748;46.670;14.272;2022-08-18T03:14:06;5.40;;;3.85;;
38332;SDS011;25748;46.670;14.272;2022-08-18T03:16:31;9.82;;;4.40;;
38332;SDS011;25748;46.670;14.272;2022-08-18T03:18:58;7.20;;;3.78;;
38332;SDS011;25748;46.670;14.272;2022-08-18T03:21:26;7.75;;;4.68;;
38332;SDS011;25748;46.670;14.272;2022-08-18T03:23:53;14.13;;;5.20;;
38332;SDS011;25748;46.670;14.272;2022-08-18T03:26:20;7.60;;;4.65;;
38332;SDS011;25748;46.670;14.272;2022-08-18T03:28:48;9.63;;;5.47;;
38332;SDS011;25748;46.670;14.272;2022-08-18T03:31:16;9.13;;;5.63;;
38332;SDS011;25748;46.670;14.272;2022-08-18T03:33:44;9.52;;;5.07;;
38332;SDS011;25748;46.670;14.272;2022-08-18T03:36:12;9.45;;;5.28;;
38332;SDS011;25748;46.670;14.272;2022-08-18T03:38:41;12.32;;;5.40;;
38332;SDS011;25748;46.670;14.272;2022-08-18T03:41:08;11.63;;;4.72;;
38332;SDS011;25748;46.670;14.272;2022-08-18T03:43:36;8.07;;;5.25;;
38332;SDS011;25748;46.670;14.272;2022-08-18T03:46:03;12.00;;;5.72;;
38332;SDS011;25748;46.670;14.272;2022-08-18T03:48:31;17.38;;;5.93;;
38332;SDS011;25748;46.670;14.272;2022-08-18T03:51:03;19.15;;;6.57;;
38332;SDS011;25748;46.670;14.272;2022-08-18T03:53:34;14.48;;;6.55;;
38332;SDS011;25748;46.670;14.272;2022-08-18T03:56:01;20.08;;;7.20;;
38332;SDS011;25748;46.670;14.272;2022-08-18T03:58:31;12.57;;;5.70;;
38332;SDS011;25748;46.670;14.272;2022-08-18T04:00:57;17.63;;;5.82;;
38332;SDS011;25748;46.670;14.272;2022-08-18T04:03:23;12.65;;;5.70;;
38332;SDS011;25748;46.670;14.272;2022-08-18T04:05:48;12.93;;;5.28;;
38332;SDS011;25748;46.670;14.272;2022-08-18T04:08:14;13.20;;;5.60;;
38332;SDS011;25748;46.670;14.272;2022-08-18T04:10:42;14.10;;;5.88;;
38332;SDS011;25748;46.670;14.272;2022-08-18T04:13:11;14.60;;;5.78;;
38332;SDS011;25748;46.670;14.272;2022-08-18T04:15:36;10.95;;;6.10;;
38332;SDS011;25748;46.670;14.272;2022-08-18T04:18:02;13.43;;;6.03;;
38332;SDS011;25748;46.670;14.272;2022-08-18T04:20:28;9.23;;;5.18;;
38332;SDS011;25748;46.670;14.272;2022-08-18T04:22:57;10.70;;;5.28;;
38332;SDS011;25748;46.670;14.272;2022-08-18T04:25:23;13.73;;;5.25;;
38332;SDS011;25748;46.670;14.272;2022-08-18T04:27:50;9.00;;;5.25;;
38332;SDS011;25748;46.670;14.272;2022-08-18T04:30:21;7.35;;;4.80;;
38332;SDS011;25748;46.670;14.272;2022-08-18T04:32:48;8.93;;;5.03;;
38332;SDS011;25748;46.670;14.272;2022-08-18T04:35:15;6.88;;;4.43;;
38332;SDS011;25748;46.670;14.272;2022-08-18T04:37:41;8.38;;;4.85;;
38332;SDS011;25748;46.670;14.272;2022-08-18T04:40:08;7.78;;;4.60;;
38332;SDS011;25748;46.670;14.272;2022-08-18T04:42:35;8.52;;;4.70;;
38332;SDS011;25748;46.670;14.272;2022-08-18T04:45:00;10.85;;;5.28;;
38332;SDS011;25748;46.670;14.272;2022-08-18T04:47:26;8.38;;;4.40;;
38332;SDS011;25748;46.670;14.272;2022-08-18T04:49:52;17.27;;;5.90;;
38332;SDS011;25748;46.670;14.272;2022-08-18T04:52:18;10.18;;;5.65;;
38332;SDS011;25748;46.670;14.272;2022-08-18T04:55:04;7.03;;;4.97;;
38332;SDS011;25748;46.670;14.272;2022-08-18T04:57:30;8.55;;;4.95;;
38332;SDS011;25748;46.670;14.272;2022-08-18T04:59:57;8.63;;;5.00;;
38332;SDS011;25748;46.670;14.272;2022-08-18T05:02:23;6.47;;;4.63;;
38332;SDS011;25748;46.670;14.272;2022-08-18T05:04:49;8.43;;;5.25;;
38332;SDS011;25748;46.670;14.272;2022-08-18T05:07:16;7.63;;;5.15;;
38332;SDS011;25748;46.670;14.272;2022-08-18T05:09:43;9.55;;;5.82;;
38332;SDS011;25748;46.670;14.272;2022-08-18T05:12:10;7.97;;;4.95;;
38332;SDS011;25748;46.670;14.272;2022-08-18T05:14:39;8.65;;;5.15;;
38332;SDS011;25748;46.670;14.272;2022-08-18T05:17:05;7.75;;;4.75;;
38332;SDS011;25748;46.670;14.272;2022-08-18T05:19:32;8.77;;;5.00;;
38332;SDS011;25748;46.670;14.272;2022-08-18T05:21:59;8.38;;;5.57;;
38332;SDS011;25748;46.670;14.272;2022-08-18T05:24:26;7.88;;;5.10;;
38332;SDS011;25748;46.670;14.272;2022-08-18T05:26:53;6.30;;;4.63;;
38332;SDS011;25748;46.670;14.272;2022-08-18T05:29:19;8.68;;;4.20;;
38332;SDS011;25748;46.670;14.272;2022-08-18T05:31:49;8.10;;;4.70;;
38332;SDS011;25748;46.670;14.272;2022-08-18T05:34:17;6.65;;;4.55;;
38332;SDS011;25748;46.670;14.272;2022-08-18T05:42:14;7.80;;;4.07;;
38332;SDS011;25748;46.670;14.272;2022-08-18T05:44:46;7.07;;;4.20;;
38332;SDS011;25748;46.670;14.272;2022-08-18T05:49:50;8.23;;;4.38;;
38332;SDS011;25748;46.670;14.272;2022-08-18T05:52:29;7.80;;;4.65;;
38332;SDS011;25748;46.670;14.272;2022-08-18T05:55:03;6.13;;;4.00;;
38332;SDS011;25748;46.670;14.272;2022-08-18T05:57:56;7.68;;;3.70;;
38332;SDS011;25748;46.670;14.272;2022-08-18T06:00:36;6.10;;;4.50;;
38332;SDS011;25748;46.670;14.272;2022-08-18T06:03:05;8.05;;;4.20;;
38332;SDS011;25748;46.670;14.272;2022-08-18T06:05:43;6.10;;;4.00;;
38332;SDS011;25748;46.670;14.272;2022-08-18T06:08:16;7.45;;;4.30;;
38332;SDS011;25748;46.670;14.272;2022-08-18T06:10:47;6.28;;;4.22;;
38332;SDS011;25748;46.670;14.272;2022-08-18T06:13:14;8.30;;;4.03;;
38332;SDS011;25748;46.670;14.272;2022-08-18T06:23:26;6.43;;;4.20;;
38332;SDS011;25748;46.670;14.272;2022-08-18T06:31:39;7.55;;;4.18;;
38332;SDS011;25748;46.670;14.272;2022-08-18T06:37:06;8.77;;;3.88;;
38332;SDS011;25748;46.670;14.272;2022-08-18T06:39:45;5.15;;;3.85;;
38332;SDS011;25748;46.670;14.272;2022-08-18T06:42:17;5.38;;;4.63;;
38332;SDS011;25748;46.670;14.272;2022-08-18T06:44:46;5.93;;;4.30;;
38332;SDS011;25748;46.670;14.272;2022-08-18T06:55:09;8.43;;;4.70;;
38332;SDS011;25748;46.670;14.272;2022-08-18T06:57:57;9.48;;;3.42;;
38332;SDS011;25748;46.670;14.272;2022-08-18T07:00:27;6.32;;;4.55;;
38332;SDS011;25748;46.670;14.272;2022-08-18T07:03:00;8.40;;;4.53;;
38332;SDS011;25748;46.670;14.272;2022-08-18T07:05:36;5.50;;;3.92;;
38332;SDS011;25748;46.670;14.272;2022-08-18T07:13:41;5.85;;;4.63;;
38332;SDS011;25748;46.670;14.272;2022-08-18T07:16:14;5.90;;;4.43;;
38332;SDS011;25748;46.670;14.272;2022-08-18T07:18:47;11.50;;;4.13;;
38332;SDS011;25748;46.670;14.272;2022-08-18T07:21:28;13.07;;;4.22;;
38332;SDS011;25748;46.670;14.272;2022-08-18T07:26:24;9.63;;;4.45;;
38332;SDS011;25748;46.670;14.272;2022-08-18T07:28:50;7.25;;;4.45;;
38332;SDS011;25748;46.670;14.272;2022-08-18T07:34:31;8.27;;;4.60;;
38332;SDS011;25748;46.670;14.272;2022-08-18T07:36:43;9.30;;;4.22;;
38332;SDS011;25748;46.670;14.272;2022-08-18T07:39:26;6.38;;;4.60;;
38332;SDS011;25748;46.670;14.272;2022-08-18T07:49:55;7.50;;;5.47;;
38332;SDS011;25748;46.670;14.272;2022-08-18T07:52:24;7.38;;;4.82;;
38332;SDS011;25748;46.670;14.272;2022-08-18T07:55:20;7.55;;;4.80;;
38332;SDS011;25748;46.670;14.272;2022-08-18T07:58:16;9.40;;;4.90;;
38332;SDS011;25748;46.670;14.272;2022-08-18T08:15:11;10.57;;;4.78;;
38332;SDS011;25748;46.670;14.272;2022-08-18T08:20:32;6.80;;;4.93;;
38332;SDS011;25748;46.670;14.272;2022-08-18T08:23:10;8.70;;;4.53;;
38332;SDS011;25748;46.670;14.272;2022-08-18T08:25:58;6.85;;;4.32;;
38332;SDS011;25748;46.670;14.272;2022-08-18T08:31:21;11.95;;;4.40;;
38332;SDS011;25748;46.670;14.272;2022-08-18T08:34:11;6.55;;;3.60;;
38332;SDS011;25748;46.670;14.272;2022-08-18T08:36:39;8.43;;;3.38;;
38332;SDS011;25748;46.670;14.272;2022-08-18T08:39:14;4.30;;;3.73;;
38332;SDS011;25748;46.670;14.272;2022-08-18T08:41:53;5.03;;;3.25;;
38332;SDS011;25748;46.670;14.272;2022-08-18T08:44:34;8.50;;;4.07;;
38332;SDS011;25748;46.670;14.272;2022-08-18T08:47:18;6.00;;;3.60;;
38332;SDS011;25748;46.670;14.272;2022-08-18T08:49:58;6.65;;;4.07;;
38332;SDS011;25748;46.670;14.272;2022-08-18T08:52:39;8.82;;;3.92;;
38332;SDS011;25748;46.670;14.272;2022-08-18T08:57:41;7.20;;;3.60;;
38332;SDS011;25748;46.670;14.272;2022-08-18T09:00:15;8.70;;;4.15;;
38332;SDS011;25748;46.670;14.272;2022-08-18T09:08:04;5.57;;;3.97;;
38332;SDS011;25748;46.670;14.272;2022-08-18T09:16:09;5.88;;;3.65;;
38332;SDS011;25748;46.670;14.272;2022-08-18T09:19:02;5.53;;;3.67;;
38332;SDS011;25748;46.670;14.272;2022-08-18T09:24:11;8.43;;;3.67;;
38332;SDS011;25748;46.670;14.272;2022-08-18T09:40:13;8.82;;;3.03;;
38332;SDS011;25748;46.670;14.272;2022-08-18T09:45:49;6.18;;;3.42;;
38332;SDS011;25748;46.670;14.272;2022-08-18T09:48:26;4.50;;;2.83;;
38332;SDS011;25748;46.670;14.272;2022-08-18T09:59:13;5.15;;;3.15;;
38332;SDS011;25748;46.670;14.272;2022-08-18T10:21:18;9.18;;;3.17;;
38332;SDS011;25748;46.670;14.272;2022-08-18T10:23:48;10.60;;;4.18;;
38332;SDS011;25748;46.670;14.272;2022-08-18T10:45:30;8.93;;;3.95;;
38332;SDS011;25748;46.670;14.272;2022-08-18T10:48:12;9.23;;;3.08;;
38332;SDS011;25748;46.670;14.272;2022-08-18T10:56:33;6.75;;;3.72;;
38332;SDS011;25748;46.670;14.272;2022-08-18T10:59:10;9.65;;;3.72;;
38332;SDS011;25748;46.670;14.272;2022-08-18T11:04:43;5.43;;;3.10;;
38332;SDS011;25748;46.670;14.272;2022-08-18T11:07:21;7.40;;;3.17;;
38332;SDS011;25748;46.670;14.272;2022-08-18T11:09:51;6.97;;;3.08;;
38332;SDS011;25748;46.670;14.272;2022-08-18T11:15:10;8.30;;;3.22;;
38332;SDS011;25748;46.670;14.272;2022-08-18T11:20:10;5.80;;;3.03;;
38332;SDS011;25748;46.670;14.272;2022-08-18T11:22:47;4.65;;;3.10;;
38332;SDS011;25748;46.670;14.272;2022-08-18T11:25:19;7.40;;;3.28;;
38332;SDS011;25748;46.670;14.272;2022-08-18T11:27:52;6.70;;;3.30;;
38332;SDS011;25748;46.670;14.272;2022-08-18T11:30:18;4.13;;;3.03;;
38332;SDS011;25748;46.670;14.272;2022-08-18T11:32:44;5.00;;;2.88;;
38332;SDS011;25748;46.670;14.272;2022-08-18T11:35:13;6.57;;;3.70;;
38332;SDS011;25748;46.670;14.272;2022-08-18T11:37:46;8.38;;;3.13;;
38332;SDS011;25748;46.670;14.272;2022-08-18T11:40:35;4.97;;;3.13;;
38332;SDS011;25748;46.670;14.272;2022-08-18T12:14:53;8.40;;;2.90;;
38332;SDS011;25748;46.670;14.272;2022-08-18T12:17:20;7.50;;;3.65;;
38332;SDS011;25748;46.670;14.272;2022-08-18T12:19:46;9.80;;;3.35;;
38332;SDS011;25748;46.670;14.272;2022-08-18T12:22:13;8.18;;;3.38;;
38332;SDS011;25748;46.670;14.272;2022-08-18T12:24:45;8.48;;;3.08;;
38332;SDS011;25748;46.670;14.272;2022-08-18T12:27:15;4.53;;;2.58;;
38332;SDS011;25748;46.670;14.272;2022-08-18T12:29:43;9.18;;;2.90;;
38332;SDS011;25748;46.670;14.272;2022-08-18T12:32:09;4.88;;;2.70;;
38332;SDS011;25748;46.670;14.272;2022-08-18T12:34:35;7.25;;;3.15;;
38332;SDS011;25748;46.670;14.272;2022-08-18T12:37:01;6.80;;;3.00;;
38332;SDS011;25748;46.670;14.272;2022-08-18T12:39:28;6.70;;;2.95;;
38332;SDS011;25748;46.670;14.272;2022-08-18T12:41:55;6.65;;;2.78;;
38332;SDS011;25748;46.670;14.272;2022-08-18T12:44:21;6.88;;;2.30;;
38332;SDS011;25748;46.670;14.272;2022-08-18T12:46:47;5.53;;;2.00;;
38332;SDS011;25748;46.670;14.272;2022-08-18T12:49:15;3.10;;;2.00;;
38332;SDS011;25748;46.670;14.272;2022-08-18T12:51:44;6.15;;;1.77;;
38332;SDS011;25748;46.670;14.272;2022-08-18T12:54:10;8.00;;;2.72;;
38332;SDS011;25748;46.670;14.272;2022-08-18T12:56:36;12.57;;;2.85;;
38332;SDS011;25748;46.670;14.272;2022-08-18T12:59:03;5.80;;;2.63;;
38332;SDS011;25748;46.670;14.272;2022-08-18T13:01:31;13.90;;;2.58;;
38332;SDS011;25748;46.670;14.272;2022-08-18T13:03:57;12.70;;;2.33;;
38332;SDS011;25748;46.670;14.272;2022-08-18T13:06:25;13.57;;;2.40;;
38332;SDS011;25748;46.670;14.272;2022-08-18T13:08:51;8.00;;;1.98;;
38332;SDS011;25748;46.670;14.272;2022-08-18T13:11:19;10.50;;;1.80;;
38332;SDS011;25748;46.670;14.272;2022-08-18T13:13:46;9.13;;;1.58;;
38332;SDS011;25748;46.670;14.272;2022-08-18T13:16:12;10.20;;;1.23;;
38332;SDS011;25748;46.670;14.272;2022-08-18T13:18:39;5.35;;;0.77;;
38332;SDS011;25748;46.670;14.272;2022-08-18T13:21:12;6.05;;;1.27;;
38332;SDS011;25748;46.670;14.272;2022-08-18T13:23:39;1.63;;;0.70;;
38332;SDS011;25748;46.670;14.272;2022-08-18T13:26:07;3.50;;;0.77;;
38332;SDS011;25748;46.670;14.272;2022-08-18T13:28:36;1.77;;;0.77;;
38332;SDS011;25748;46.670;14.272;2022-08-18T13:31:04;1.80;;;0.80;;
38332;SDS011;25748;46.670;14.272;2022-08-18T13:33:30;4.10;;;0.80;;
38332;SDS011;25748;46.670;14.272;2022-08-18T13:35:57;3.47;;;0.73;;
38332;SDS011;25748;46.670;14.272;2022-08-18T13:38:23;4.60;;;0.88;;
38332;SDS011;25748;46.670;14.272;2022-08-18T13:40:49;3.67;;;0.73;;
38332;SDS011;25748;46.670;14.272;2022-08-18T13:43:20;6.15;;;1.00;;
38332;SDS011;25748;46.670;14.272;2022-08-18T13:45:51;1.38;;;0.40;;
38332;SDS011;25748;46.670;14.272;2022-08-18T13:48:17;3.63;;;1.17;;
38332;SDS011;25748;46.670;14.272;2022-08-18T13:50:42;6.32;;;0.90;;
38332;SDS011;25748;46.670;14.272;2022-08-18T13:53:13;3.63;;;0.57;;
38332;SDS011;25748;46.670;14.272;2022-08-18T13:55:43;2.97;;;0.70;;
38332;SDS011;25748;46.670;14.272;2022-08-18T13:58:12;2.85;;;0.70;;
38332;SDS011;25748;46.670;14.272;2022-08-18T14:00:38;2.83;;;0.90;;
38332;SDS011;25748;46.670;14.272;2022-08-18T14:03:09;3.87;;;1.10;;
38332;SDS011;25748;46.670;14.272;2022-08-18T14:05:36;3.00;;;0.90;;
38332;SDS011;25748;46.670;14.272;2022-08-18T14:08:03;4.10;;;1.23;;
38332;SDS011;25748;46.670;14.272;2022-08-18T14:10:29;3.45;;;0.82;;
38332;SDS011;25748;46.670;14.272;2022-08-18T14:12:57;2.53;;;0.90;;
38332;SDS011;25748;46.670;14.272;2022-08-18T14:15:24;3.63;;;0.80;;
38332;SDS011;25748;46.670;14.272;2022-08-18T14:17:51;1.70;;;0.75;;
38332;SDS011;25748;46.670;14.272;2022-08-18T14:20:17;1.80;;;0.80;;
38332;SDS011;25748;46.670;14.272;2022-08-18T14:23:02;5.75;;;0.93;;
38332;SDS011;25748;46.670;14.272;2022-08-18T14:25:47;2.88;;;1.15;;
38332;SDS011;25748;46.670;14.272;2022-08-18T14:28:31;2.22;;;0.70;;
38332;SDS011;25748;46.670;14.272;2022-08-18T14:30:58;3.35;;;0.52;;
38332;SDS011;25748;46.670;14.272;2022-08-18T14:33:26;5.75;;;0.70;;
38332;SDS011;25748;46.670;14.272;2022-08-18T14:35:53;4.85;;;0.85;;
38332;SDS011;25748;46.670;14.272;2022-08-18T14:38:19;3.67;;;0.90;;
38332;SDS011;25748;46.670;14.272;2022-08-18T14:40:45;3.20;;;0.90;;
38332;SDS011;25748;46.670;14.272;2022-08-18T14:43:12;2.65;;;0.75;;
38332;SDS011;25748;46.670;14.272;2022-08-18T14:45:40;6.93;;;0.70;;
38332;SDS011;25748;46.670;14.272;2022-08-18T14:48:12;4.60;;;0.52;;
38332;SDS011;25748;46.670;14.272;2022-08-18T14:50:45;1.00;;;0.63;;
38332;SDS011;25748;46.670;14.272;2022-08-18T14:55:44;6.70;;;1.08;;
38332;SDS011;25748;46.670;14.272;2022-08-18T14:58:10;2.92;;;0.63;;
38332;SDS011;25748;46.670;14.272;2022-08-18T15:00:35;4.57;;;0.60;;
38332;SDS011;25748;46.670;14.272;2022-08-18T15:03:02;6.03;;;0.70;;
38332;SDS011;25748;46.670;14.272;2022-08-18T15:05:30;6.35;;;0.50;;
38332;SDS011;25748;46.670;14.272;2022-08-18T15:07:57;1.52;;;0.82;;
38332;SDS011;25748;46.670;14.272;2022-08-18T15:10:23;4.90;;;0.80;;
38332;SDS011;25748;46.670;14.272;2022-08-18T15:12:50;3.03;;;0.70;;
38332;SDS011;25748;46.670;14.272;2022-08-18T15:15:16;3.45;;;0.68;;
38332;SDS011;25748;46.670;14.272;2022-08-18T15:17:42;5.63;;;1.15;;
38332;SDS011;25748;46.670;14.272;2022-08-18T15:20:09;3.17;;;1.30;;
38332;SDS011;25748;46.670;14.272;2022-08-18T15:22:40;3.15;;;0.70;;
38332;SDS011;25748;46.670;14.272;2022-08-18T15:25:25;4.15;;;0.88;;
38332;SDS011;25748;46.670;14.272;2022-08-18T15:28:24;3.63;;;0.70;;
38332;SDS011;25748;46.670;14.272;2022-08-18T15:30:51;2.53;;;0.95;;
38332;SDS011;25748;46.670;14.272;2022-08-18T15:33:17;3.65;;;0.90;;
38332;SDS011;25748;46.670;14.272;2022-08-18T15:35:45;5.68;;;0.63;;
38332;SDS011;25748;46.670;14.272;2022-08-18T15:38:21;1.85;;;1.00;;
38332;SDS011;25748;46.670;14.272;2022-08-18T15:43:17;6.50;;;1.00;;
38332;SDS011;25748;46.670;14.272;2022-08-18T15:45:52;4.00;;;0.98;;
38332;SDS011;25748;46.670;14.272;2022-08-18T15:48:19;4.68;;;1.10;;
38332;SDS011;25748;46.670;14.272;2022-08-18T15:50:46;2.88;;;1.05;;
38332;SDS011;25748;46.670;14.272;2022-08-18T15:53:18;3.10;;;1.13;;
38332;SDS011;25748;46.670;14.272;2022-08-18T15:55:46;6.85;;;1.35;;
38332;SDS011;25748;46.670;14.272;2022-08-18T15:58:12;3.92;;;1.25;;
38332;SDS011;25748;46.670;14.272;2022-08-18T16:00:39;9.02;;;1.33;;
38332;SDS011;25748;46.670;14.272;2022-08-18T16:03:08;7.93;;;1.30;;
38332;SDS011;25748;46.670;14.272;2022-08-18T16:05:38;2.50;;;0.82;;
38332;SDS011;25748;46.670;14.272;2022-08-18T16:08:06;6.38;;;1.23;;
38332;SDS011;25748;46.670;14.272;2022-08-18T16:10:37;3.95;;;1.73;;
38332;SDS011;25748;46.670;14.272;2022-08-18T16:13:05;5.38;;;1.33;;
38332;SDS011;25748;46.670;14.272;2022-08-18T16:15:35;5.05;;;1.17;;
38332;SDS011;25748;46.670;14.272;2022-08-18T16:18:04;3.25;;;0.98;;
38332;SDS011;25748;46.670;14.272;2022-08-18T16:20:31;2.22;;;0.90;;
38332;SDS011;25748;46.670;14.272;2022-08-18T16:22:57;4.13;;;1.20;;
38332;SDS011;25748;46.670;14.272;2022-08-18T16:25:24;8.23;;;1.00;;
38332;SDS011;25748;46.670;14.272;2022-08-18T16:27:50;4.18;;;0.90;;
38332;SDS011;25748;46.670;14.272;2022-08-18T16:30:18;6.10;;;1.17;;
38332;SDS011;25748;46.670;14.272;2022-08-18T16:32:47;1.27;;;0.73;;
38332;SDS011;25748;46.670;14.272;2022-08-18T16:35:14;2.38;;;1.10;;
38332;SDS011;25748;46.670;14.272;2022-08-18T16:37:46;4.70;;;0.88;;
38332;SDS011;25748;46.670;14.272;2022-08-18T16:40:14;3.30;;;1.48;;
38332;SDS011;25748;46.670;14.272;2022-08-18T16:42:41;3.75;;;1.30;;
38332;SDS011;25748;46.670;14.272;2022-08-18T16:45:07;4.55;;;1.10;;
38332;SDS011;25748;46.670;14.272;2022-08-18T16:47:34;3.78;;;1.00;;
38332;SDS011;25748;46.670;14.272;2022-08-18T16:50:09;4.18;;;1.30;;
38332;SDS011;25748;46.670;14.272;2022-08-18T16:52:38;3.83;;;0.98;;
38332;SDS011;25748;46.670;14.272;2022-08-18T16:55:05;1.85;;;0.88;;
38332;SDS011;25748;46.670;14.272;2022-08-18T16:57:32;5.03;;;1.23;;
38332;SDS011;25748;46.670;14.272;2022-08-18T17:00:16;6.10;;;0.90;;
38332;SDS011;25748;46.670;14.272;2022-08-18T17:03:02;3.40;;;0.88;;
38332;SDS011;25748;46.670;14.272;2022-08-18T17:05:47;7.93;;;1.73;;
38332;SDS011;25748;46.670;14.272;2022-08-18T17:08:13;5.55;;;0.85;;
38332;SDS011;25748;46.670;14.272;2022-08-18T17:10:40;4.28;;;1.05;;
38332;SDS011;25748;46.670;14.272;2022-08-18T17:13:06;9.10;;;1.13;;
38332;SDS011;25748;46.670;14.272;2022-08-18T17:15:32;6.63;;;1.13;;
38332;SDS011;25748;46.670;14.272;2022-08-18T17:17:58;2.13;;;0.82;;
38332;SDS011;25748;46.670;14.272;2022-08-18T17:20:25;5.95;;;1.10;;
38332;SDS011;25748;46.670;14.272;2022-08-18T17:22:51;5.07;;;2.13;;
38332;SDS011;25748;46.670;14.272;2022-08-18T17:25:18;5.28;;;1.30;;
38332;SDS011;25748;46.670;14.272;2022-08-18T17:27:48;1.40;;;0.90;;
38332;SDS011;25748;46.670;14.272;2022-08-18T17:30:17;2.75;;;1.30;;
38332;SDS011;25748;46.670;14.272;2022-08-18T17:32:57;3.73;;;1.10;;
38332;SDS011;25748;46.670;14.272;2022-08-18T17:35:27;6.35;;;1.30;;
38332;SDS011;25748;46.670;14.272;2022-08-18T17:38:09;7.10;;;1.40;;
38332;SDS011;25748;46.670;14.272;2022-08-18T17:40:45;5.13;;;1.10;;
38332;SDS011;25748;46.670;14.272;2022-08-18T17:43:20;8.35;;;1.10;;
38332;SDS011;25748;46.670;14.272;2022-08-18T17:45:52;7.13;;;1.10;;
38332;SDS011;25748;46.670;14.272;2022-08-18T17:48:50;1.95;;;1.05;;
38332;SDS011;25748;46.670;14.272;2022-08-18T17:56:45;3.40;;;0.90;;
38332;SDS011;25748;46.670;14.272;2022-08-18T17:59:28;4.47;;;1.10;;
38332;SDS011;25748;46.670;14.272;2022-08-18T18:02:09;3.15;;;1.20;;
38332;SDS011;25748;46.670;14.272;2022-08-18T18:04:39;2.92;;;1.25;;
38332;SDS011;25748;46.670;14.272;2022-08-18T18:07:18;3.50;;;1.00;;
38332;SDS011;25748;46.670;14.272;2022-08-18T18:10:00;2.13;;;0.95;;
38332;SDS011;25748;46.670;14.272;2022-08-18T18:12:31;4.85;;;0.90;;
38332;SDS011;25748;46.670;14.272;2022-08-18T18:14:59;4.85;;;0.93;;
38332;SDS011;25748;46.670;14.272;2022-08-18T18:17:27;6.10;;;0.82;;
38332;SDS011;25748;46.670;14.272;2022-08-18T18:20:57;3.78;;;1.30;;
38332;SDS011;25748;46.670;14.272;2022-08-18T18:23:16;3.08;;;1.17;;